Time;durP1;ratioP1;P1;durP2;ratioP2;P2;SDS_P1;SDS_P2;PMS_P1;PMS_P2;Temp;Humidity;BMP_temperature;BMP_pressure;BME280_temperature;BME280_humidity;BME280_pressure;Samples;Min_cycle;Max_cycle;Signal;HPM_P1;HPM_P2
2022/07/29 00:00:20;;;;;;;5.43;4.73;;;21.70;51.90;;;;;;5035404;28;20432;-73
2022/07/29 00:02:47;;;;;;;5.47;5.00;;;21.60;52.00;;;;;;5034913;28;20458;-72
2022/07/29 00:05:14;;;;;;;5.57;5.07;;;21.60;52.20;;;;;;5037115;28;21111;-73
2022/07/29 00:07:41;;;;;;;5.80;5.20;;;21.60;52.60;;;;;;5037065;28;20431;-72
2022/07/29 00:10:08;;;;;;;5.43;4.93;;;21.60;52.20;;;;;;5036434;28;21142;-73
2022/07/29 00:12:36;;;;;;;5.30;4.90;;;21.60;52.30;;;;;;5035526;28;20545;-73
2022/07/29 00:15:05;;;;;;;5.50;5.00;;;21.60;52.50;;;;;;5036395;28;20818;-74
2022/07/29 00:17:33;;;;;;;5.13;4.73;;;21.60;52.80;;;;;;5034816;28;20991;-72
2022/07/29 00:20:00;;;;;;;5.60;5.10;;;21.60;52.90;;;;;;5035741;28;20548;-73
2022/07/29 00:22:27;;;;;;;5.50;5.00;;;21.50;53.60;;;;;;5037504;28;20504;-75
2022/07/29 00:24:54;;;;;;;5.23;4.93;;;21.50;53.90;;;;;;5056933;28;20475;-73
2022/07/29 00:27:21;;;;;;;5.60;5.10;;;21.40;54.00;;;;;;5057654;28;20513;-73
2022/07/29 00:29:49;;;;;;;5.77;5.20;;;21.40;54.00;;;;;;5044246;28;20412;-74
2022/07/29 00:32:16;;;;;;;5.27;4.87;;;21.40;54.10;;;;;;5046244;28;20485;-72
2022/07/29 00:37:27;;;;;;;5.27;4.77;;;21.30;55.10;;;;;;5039098;28;20452;-72
2022/07/29 00:39:54;;;;;;;8.50;5.40;;;21.30;55.60;;;;;;5036061;28;20431;-73
2022/07/29 00:42:21;;;;;;;5.50;5.03;;;21.30;55.80;;;;;;5034559;28;20455;-72
2022/07/29 00:44:49;;;;;;;5.57;5.17;;;21.20;55.90;;;;;;5033734;28;20477;-72
2022/07/29 00:47:16;;;;;;;5.10;4.60;;;21.20;56.00;;;;;;5033757;28;20517;-72
2022/07/29 00:49:44;;;;;;;5.17;4.80;;;21.20;56.40;;;;;;5033380;28;20464;-73
2022/07/29 00:52:11;;;;;;;5.83;5.07;;;21.10;57.00;;;;;;5033629;28;20428;-73
2022/07/29 00:54:39;;;;;;;6.03;4.90;;;21.00;57.80;;;;;;5033346;28;20449;-72
2022/07/29 00:57:08;;;;;;;7.23;4.80;;;21.00;58.40;;;;;;5033085;28;20463;-72
2022/07/29 00:59:35;;;;;;;5.70;5.20;;;20.90;59.00;;;;;;5033274;28;20943;-72
2022/07/29 01:02:04;;;;;;;5.57;5.10;;;20.90;59.40;;;;;;5033369;28;20449;-74
2022/07/29 01:04:32;;;;;;;8.13;5.50;;;20.80;59.30;;;;;;5033431;28;20478;-73
2022/07/29 01:06:59;;;;;;;5.73;5.23;;;20.80;59.30;;;;;;5033302;28;20421;-73
2022/07/29 01:09:28;;;;;;;6.00;5.50;;;20.80;59.30;;;;;;5033233;28;20452;-73
2022/07/29 01:11:55;;;;;;;5.67;4.87;;;20.80;59.30;;;;;;5033479;28;20457;-73
2022/07/29 01:14:22;;;;;;;5.93;5.43;;;20.70;59.30;;;;;;5033593;28;20535;-73
2022/07/29 01:16:53;;;;;;;5.20;4.80;;;20.80;59.30;;;;;;5033499;28;20986;-73
2022/07/29 01:19:45;;;;;;;5.73;5.23;;;20.80;59.30;;;;;;5033349;28;20460;-73
2022/07/29 01:22:28;;;;;;;5.73;5.13;;;20.70;59.90;;;;;;5033538;28;20457;-73
2022/07/29 01:25:10;;;;;;;5.63;5.13;;;20.70;60.70;;;;;;5033469;28;20536;-73
2022/07/29 01:27:48;;;;;;;5.83;5.33;;;20.60;61.00;;;;;;5033596;28;20619;-73
2022/07/29 01:30:16;;;;;;;5.30;4.90;;;20.60;61.10;;;;;;5032908;28;20424;-74
2022/07/29 01:32:45;;;;;;;5.17;4.77;;;20.60;61.60;;;;;;5034019;28;20441;-73
2022/07/29 01:35:19;;;;;;;6.27;5.77;;;20.60;61.90;;;;;;5032964;28;20484;-72
2022/07/29 01:37:52;;;;;;;5.47;5.07;;;20.60;62.10;;;;;;5033894;28;20847;-73
2022/07/29 01:40:23;;;;;;;6.10;5.50;;;20.60;61.90;;;;;;5035453;28;20432;-72
2022/07/29 01:42:53;;;;;;;5.57;5.07;;;20.50;62.20;;;;;;5036851;28;20420;-73
2022/07/29 01:45:25;;;;;;;6.50;5.63;;;20.50;62.80;;;;;;5050372;28;20537;-73
2022/07/29 01:47:58;;;;;;;5.40;5.00;;;20.50;62.70;;;;;;5053876;28;20521;-73
2022/07/29 01:50:32;;;;;;;5.30;4.90;;;20.50;62.80;;;;;;5041740;28;20507;-73
2022/07/29 01:53:02;;;;;;;5.20;4.70;;;20.40;63.40;;;;;;5040602;28;20504;-72
2022/07/29 01:55:32;;;;;;;6.07;5.57;;;20.40;63.80;;;;;;5040153;28;20452;-73
2022/07/29 01:58:01;;;;;;;6.77;6.17;;;20.40;64.20;;;;;;5039661;28;20516;-73
2022/07/29 02:00:32;;;;;;;6.10;5.50;;;20.30;64.90;;;;;;5038228;28;20458;-74
2022/07/29 02:03:01;;;;;;;5.50;5.07;;;20.30;64.70;;;;;;5036883;28;20552;-73
2022/07/29 02:05:31;;;;;;;6.20;4.67;;;20.30;64.60;;;;;;5036787;28;20477;-73
2022/07/29 02:08:01;;;;;;;5.90;5.30;;;20.30;64.50;;;;;;5036293;28;20420;-73
2022/07/29 02:10:32;;;;;;;9.67;6.10;;;20.30;64.90;;;;;;5036878;28;20464;-73
2022/07/29 02:13:00;;;;;;;6.50;5.20;;;20.20;65.70;;;;;;5036172;28;20963;-72
2022/07/29 02:15:31;;;;;;;6.00;5.60;;;20.20;66.40;;;;;;5036056;28;20452;-72
2022/07/29 02:18:02;;;;;;;6.60;5.93;;;20.10;67.00;;;;;;5036010;28;20489;-73
2022/07/29 02:20:31;;;;;;;5.60;5.10;;;20.10;67.00;;;;;;5035990;28;20438;-73
2022/07/29 02:22:59;;;;;;;5.67;5.17;;;20.10;67.90;;;;;;5035696;28;20464;-74
2022/07/29 02:25:27;;;;;;;5.60;5.03;;;20.10;66.80;;;;;;5036089;28;20931;-74
2022/07/29 02:27:54;;;;;;;6.10;5.60;;;20.10;66.70;;;;;;5036676;28;20451;-73
2022/07/29 02:30:23;;;;;;;5.40;5.00;;;20.10;67.20;;;;;;5036141;28;20426;-73
2022/07/29 02:32:52;;;;;;;5.87;5.47;;;20.10;66.50;;;;;;5035475;28;20453;-73
2022/07/29 02:35:22;;;;;;;5.23;4.83;;;20.00;67.80;;;;;;5035853;28;20517;-72
2022/07/29 02:38:49;;;;;;;5.13;4.83;;;20.10;67.20;;;;;;5035767;28;20519;-73
2022/07/29 02:40:39;;;;;;;5.90;5.30;;;20.00;67.80;;;;;;5035422;28;20965;-73
2022/07/29 02:43:08;;;;;;;6.03;5.53;;;19.90;67.70;;;;;;5035781;28;20461;-74
2022/07/29 02:45:35;;;;;;;7.77;5.30;;;20.00;67.80;;;;;;5035925;28;20504;-73
2022/07/29 02:48:10;;;;;;;5.57;5.17;;;19.90;67.70;;;;;;5036511;28;20462;-72
2022/07/29 02:50:40;;;;;;;5.70;5.30;;;19.90;67.70;;;;;;5036090;28;20493;-74
2022/07/29 02:53:13;;;;;;;6.53;5.17;;;19.90;67.70;;;;;;5035898;28;20818;-74
2022/07/29 02:55:45;;;;;;;7.77;5.60;;;19.90;67.70;;;;;;5035972;28;20478;-73
2022/07/29 02:58:20;;;;;;;6.00;5.60;;;19.80;67.60;;;;;;5035775;28;20813;-72
2022/07/29 03:00:48;;;;;;;8.33;5.33;;;19.80;67.70;;;;;;5036156;28;20953;-73
2022/07/29 03:03:19;;;;;;;5.70;5.20;;;19.80;67.60;;;;;;5037604;28;20441;-74
2022/07/29 03:05:46;;;;;;;6.73;6.10;;;19.80;69.00;;;;;;5037036;28;20518;-73
2022/07/29 03:08:16;;;;;;;6.40;5.87;;;19.90;69.40;;;;;;5038987;28;20454;-73
2022/07/29 03:10:46;;;;;;;6.40;5.90;;;19.80;67.60;;;;;;5038610;28;20961;-73
2022/07/29 03:13:14;;;;;;;6.80;6.27;;;19.60;67.70;;;;;;5044815;28;20464;-72
2022/07/29 03:15:43;;;;;;;6.53;6.03;;;19.60;68.80;;;;;;5044186;28;20512;-73
2022/07/29 03:18:10;;;;;;;7.90;5.90;;;19.50;69.90;;;;;;5044073;28;20461;-73
2022/07/29 03:20:40;;;;;;;6.13;5.73;;;19.40;71.20;;;;;;5045097;28;20435;-75
2022/07/29 03:23:07;;;;;;;7.00;5.90;;;19.40;71.80;;;;;;5044102;28;20471;-73
2022/07/29 03:25:34;;;;;;;5.97;5.47;;;19.40;72.30;;;;;;5042719;28;20484;-72
2022/07/29 03:28:01;;;;;;;7.90;6.43;;;19.30;72.30;;;;;;5037796;28;20535;-73
2022/07/29 03:30:30;;;;;;;6.40;5.90;;;19.40;73.20;;;;;;5036006;28;20439;-76
2022/07/29 03:32:57;;;;;;;7.10;6.47;;;19.40;72.50;;;;;;5035718;28;20479;-74
2022/07/29 03:35:24;;;;;;;6.90;6.30;;;19.40;72.30;;;;;;5034969;28;20464;-73
2022/07/29 03:37:52;;;;;;;5.50;4.90;;;19.50;71.80;;;;;;5035505;28;20573;-76
2022/07/29 03:40:33;;;;;;;7.00;6.40;;;19.50;71.80;;;;;;5034648;28;20435;-75
2022/07/29 03:43:02;;;;;;;6.20;5.70;;;19.60;71.90;;;;;;5035247;28;20437;-73
2022/07/29 03:45:31;;;;;;;6.47;5.60;;;19.60;71.90;;;;;;5034626;28;20523;-73
2022/07/29 03:48:02;;;;;;;6.73;6.00;;;19.50;71.80;;;;;;5034662;28;20442;-73
2022/07/29 03:50:31;;;;;;;6.60;6.10;;;19.50;71.80;;;;;;5034508;28;20449;-73
2022/07/29 03:53:00;;;;;;;6.10;5.70;;;19.40;71.90;;;;;;5034196;28;20444;-74
2022/07/29 03:55:28;;;;;;;6.90;6.30;;;19.40;71.80;;;;;;5034602;28;20627;-73
2022/07/29 03:57:57;;;;;;;6.90;6.30;;;19.40;72.30;;;;;;5034190;28;20452;-74
2022/07/29 04:00:25;;;;;;;7.80;6.10;;;19.40;72.60;;;;;;5034624;28;20428;-74
2022/07/29 04:02:52;;;;;;;6.03;5.60;;;19.40;73.00;;;;;;5034411;28;20424;-73
2022/07/29 04:05:19;;;;;;;6.53;6.10;;;19.50;72.20;;;;;;5034515;28;20478;-75
2022/07/29 04:07:47;;;;;;;6.70;6.10;;;19.60;71.90;;;;;;5034548;28;20443;-73
2022/07/29 04:10:16;;;;;;;6.33;5.83;;;19.60;71.60;;;;;;5033323;28;20935;-73
2022/07/29 04:12:43;;;;;;;8.73;6.47;;;19.60;71.10;;;;;;5034200;28;20432;-74
2022/07/29 04:15:11;;;;;;;7.17;6.47;;;19.60;71.70;;;;;;5033751;28;20789;-72
2022/07/29 04:17:38;;;;;;;8.77;8.07;;;19.60;71.20;;;;;;5034254;28;20456;-72
2022/07/29 04:20:06;;;;;;;7.53;6.97;;;19.60;71.90;;;;;;5033724;28;20424;-73
2022/07/29 04:22:33;;;;;;;7.10;6.50;;;19.70;71.20;;;;;;5033888;28;20461;-73
2022/07/29 04:24:59;;;;;;;8.10;6.10;;;19.60;71.50;;;;;;5034669;28;20453;-73
2022/07/29 04:27:27;;;;;;;7.83;6.37;;;19.70;70.80;;;;;;5035183;28;20436;-73
2022/07/29 04:29:54;;;;;;;6.23;5.73;;;19.70;70.00;;;;;;5041894;28;20427;-73
2022/07/29 04:32:21;;;;;;;7.87;6.60;;;19.80;70.40;;;;;;5042196;28;20428;-74
2022/07/29 04:34:49;;;;;;;7.27;6.67;;;19.90;69.50;;;;;;5035425;28;20490;-74
2022/07/29 04:37:16;;;;;;;7.17;6.47;;;20.00;68.70;;;;;;5034857;28;20486;-73
2022/07/29 04:39:42;;;;;;;8.97;7.07;;;20.10;67.90;;;;;;5035470;28;20425;-73
2022/07/29 04:42:09;;;;;;;6.50;5.97;;;20.20;68.00;;;;;;5040417;28;20822;-73
2022/07/29 04:44:37;;;;;;;7.00;6.40;;;20.20;68.00;;;;;;5040472;28;20536;-73
2022/07/29 04:47:08;;;;;;;7.30;6.70;;;20.10;67.90;;;;;;5042155;28;20454;-73
2022/07/29 04:49:35;;;;;;;7.50;6.80;;;20.20;67.90;;;;;;5033945;28;20782;-72
2022/07/29 04:52:01;;;;;;;9.13;6.50;;;20.20;67.30;;;;;;5032940;28;20545;-73
2022/07/29 04:54:28;;;;;;;7.93;7.10;;;20.30;66.30;;;;;;5033049;28;20473;-72
2022/07/29 04:56:55;;;;;;;7.43;6.73;;;20.20;65.70;;;;;;5013259;28;20451;-72
2022/07/29 04:59:22;;;;;;;7.47;6.77;;;20.30;65.70;;;;;;5013288;28;20852;-72
2022/07/29 05:01:50;;;;;;;8.17;6.70;;;20.30;65.60;;;;;;5013183;28;20459;-71
2022/07/29 05:04:17;;;;;;;10.23;7.60;;;20.30;65.30;;;;;;5014129;28;20814;-72
2022/07/29 05:06:44;;;;;;;9.53;6.37;;;20.30;65.20;;;;;;5012719;28;20520;-72
2022/07/29 05:09:11;;;;;;;9.53;6.83;;;20.30;64.40;;;;;;5014656;28;20455;-73
2022/07/29 05:11:38;;;;;;;11.67;6.90;;;20.40;64.10;;;;;;5030185;28;20998;-74
2022/07/29 05:14:04;;;;;;;7.47;6.70;;;20.40;63.50;;;;;;5032816;28;20452;-74
2022/07/29 05:16:31;;;;;;;8.10;7.40;;;20.30;64.70;;;;;;5032849;28;20435;-73
2022/07/29 05:18:59;;;;;;;8.60;6.90;;;20.30;64.50;;;;;;5033148;28;20460;-73
2022/07/29 05:21:26;;;;;;;7.97;7.27;;;20.20;65.50;;;;;;5032328;28;21021;-73
2022/07/29 05:23:53;;;;;;;9.10;6.73;;;20.30;65.20;;;;;;5032322;28;20451;-72
2022/07/29 05:26:20;;;;;;;10.73;7.27;;;20.50;64.90;;;;;;5032756;28;20961;-73
2022/07/29 05:28:47;;;;;;;11.60;6.47;;;21.10;61.00;;;;;;5033625;28;20437;-72
2022/07/29 05:31:14;;;;;;;7.47;6.30;;;22.00;56.90;;;;;;5032814;28;20431;-73
2022/07/29 05:33:41;;;;;;;7.03;5.80;;;22.80;52.30;;;;;;5032475;28;20457;-73
2022/07/29 05:36:09;;;;;;;9.43;6.90;;;23.60;49.40;;;;;;5032576;28;20471;-72
2022/07/29 05:38:37;;;;;;;9.30;5.80;;;24.10;46.00;;;;;;5033590;28;20482;-73
2022/07/29 05:41:04;;;;;;;11.40;6.47;;;24.40;44.40;;;;;;5033966;28;20461;-72
2022/07/29 05:43:31;;;;;;;11.80;6.90;;;24.50;43.10;;;;;;5033842;28;20421;-72
2022/07/29 05:45:58;;;;;;;7.20;6.50;;;24.50;43.00;;;;;;5034028;28;21030;-72
2022/07/29 05:48:25;;;;;;;9.27;6.90;;;24.30;42.80;;;;;;5038703;28;20453;-72
2022/07/29 05:50:52;;;;;;;8.60;6.90;;;24.20;42.70;;;;;;5047271;28;20453;-74
2022/07/29 05:53:20;;;;;;;7.93;6.70;;;24.20;42.70;;;;;;5044717;28;20460;-72
2022/07/29 05:55:48;;;;;;;9.93;7.17;;;24.00;42.60;;;;;;5045314;28;20468;-74
2022/07/29 05:58:14;;;;;;;7.10;6.50;;;23.60;42.20;;;;;;5044702;28;20571;-73
2022/07/29 06:00:42;;;;;;;8.60;6.90;;;23.40;42.90;;;;;;5034574;28;20442;-73
2022/07/29 06:03:08;;;;;;;9.23;6.60;;;23.60;42.20;;;;;;5034350;28;20439;-72
2022/07/29 06:05:35;;;;;;;9.07;6.40;;;23.80;42.30;;;;;;5033557;28;20448;-72
2022/07/29 06:08:02;;;;;;;9.83;6.70;;;23.70;42.30;;;;;;5032867;28;20986;-73
2022/07/29 06:10:30;;;;;;;6.90;6.30;;;23.70;42.30;;;;;;5032964;28;20436;-74
2022/07/29 06:12:57;;;;;;;8.27;6.57;;;23.70;42.30;;;;;;5032312;28;20477;-73
2022/07/29 06:15:24;;;;;;;7.07;6.23;;;23.70;42.30;;;;;;5033747;28;20488;-74
2022/07/29 06:17:51;;;;;;;7.57;6.80;;;23.70;42.30;;;;;;5039157;28;20456;-73
2022/07/29 06:20:17;;;;;;;7.03;6.33;;;23.80;42.30;;;;;;5041557;28;20450;-74
2022/07/29 06:22:44;;;;;;;7.83;6.30;;;23.90;41.00;;;;;;5042893;28;20472;-72
2022/07/29 06:25:12;;;;;;;10.03;6.00;;;24.30;40.00;;;;;;5038286;28;20465;-74
2022/07/29 06:27:40;;;;;;;8.50;6.60;;;24.70;38.10;;;;;;5034508;28;20424;-73
2022/07/29 06:30:07;;;;;;;10.17;5.93;;;24.30;38.90;;;;;;5030336;28;20469;-73
2022/07/29 06:32:36;;;;;;;9.13;6.27;;;24.30;39.40;;;;;;5033813;28;20548;-73
2022/07/29 06:35:03;;;;;;;8.47;5.70;;;24.50;39.10;;;;;;5037927;28;20481;-74
2022/07/29 06:37:30;;;;;;;9.50;6.10;;;24.70;38.90;;;;;;5037470;28;20486;-74
2022/07/29 06:42:37;;;;;;;6.27;5.67;;;24.60;39.40;;;;;;5036481;28;21033;-73
2022/07/29 06:45:06;;;;;;;9.20;5.60;;;24.90;39.10;;;;;;5036552;28;20493;-72
2022/07/29 06:47:34;;;;;;;7.57;5.60;;;25.40;37.50;;;;;;5035975;28;20467;-74
2022/07/29 06:50:00;;;;;;;13.07;6.17;;;25.50;37.00;;;;;;5039157;28;20451;-72
2022/07/29 06:52:29;;;;;;;8.80;5.70;;;25.60;36.60;;;;;;5039367;28;20459;-74
2022/07/29 06:54:56;;;;;;;6.60;6.00;;;25.50;36.80;;;;;;5037409;28;20518;-74
2022/07/29 06:57:23;;;;;;;6.23;5.53;;;25.60;36.70;;;;;;5037773;28;20546;-71
2022/07/29 06:59:50;;;;;;;10.63;5.40;;;25.60;36.60;;;;;;5038198;28;20510;-74
2022/07/29 07:02:18;;;;;;;6.97;6.27;;;25.50;36.60;;;;;;5037010;28;20430;-73
2022/07/29 07:04:45;;;;;;;7.93;5.80;;;25.30;37.40;;;;;;5041720;28;20484;-74
2022/07/29 07:07:12;;;;;;;9.43;5.57;;;25.30;37.20;;;;;;5040021;28;20807;-73
2022/07/29 07:09:39;;;;;;;5.83;5.17;;;25.10;37.60;;;;;;5036376;28;20461;-72
2022/07/29 07:12:06;;;;;;;5.53;5.07;;;25.10;37.90;;;;;;5036041;28;20463;-72
2022/07/29 07:14:33;;;;;;;8.70;5.50;;;25.30;37.50;;;;;;5036154;28;20514;-71
2022/07/29 07:17:00;;;;;;;5.90;5.20;;;25.30;37.30;;;;;;5036329;28;20801;-73
2022/07/29 07:19:28;;;;;;;6.00;5.27;;;25.20;37.40;;;;;;5036358;28;20865;-76
2022/07/29 07:21:55;;;;;;;9.20;5.97;;;25.30;37.20;;;;;;5037360;28;20797;-70
2022/07/29 07:24:22;;;;;;;7.57;5.47;;;24.90;38.20;;;;;;5043560;28;20440;-72
2022/07/29 07:26:49;;;;;;;6.03;5.53;;;24.90;38.30;;;;;;5043387;28;20454;-75
2022/07/29 07:29:16;;;;;;;7.13;5.23;;;25.00;38.20;;;;;;5037108;28;20441;-74
2022/07/29 07:31:43;;;;;;;10.10;5.63;;;25.10;38.10;;;;;;5056215;28;20462;-73
2022/07/29 07:34:10;;;;;;;6.90;5.40;;;25.30;37.50;;;;;;5043098;28;20456;-73
2022/07/29 07:36:38;;;;;;;6.10;5.60;;;25.20;37.20;;;;;;5037439;28;20454;-73
2022/07/29 07:39:05;;;;;;;6.13;5.53;;;25.30;37.30;;;;;;5036715;28;20514;-74
2022/07/29 07:41:32;;;;;;;6.70;5.17;;;25.30;37.30;;;;;;5037782;28;20457;-78
2022/07/29 07:43:59;;;;;;;5.63;5.10;;;25.40;37.00;;;;;;5039005;28;20795;-74
2022/07/29 07:46:26;;;;;;;9.40;5.83;;;25.60;36.40;;;;;;5034151;28;20432;-75
2022/07/29 07:48:53;;;;;;;5.57;5.00;;;25.50;36.60;;;;;;5016157;28;20958;-75
2022/07/29 07:51:20;;;;;;;5.60;5.20;;;25.40;36.50;;;;;;5021949;28;20774;-75
2022/07/29 07:53:50;;;;;;;6.37;5.83;;;25.50;36.00;;;;;;5035724;28;20446;-75
2022/07/29 07:56:17;;;;;;;5.97;5.27;;;25.60;36.00;;;;;;5035560;28;20467;-75
2022/07/29 07:58:43;;;;;;;5.40;4.90;;;25.70;35.40;;;;;;5036926;28;20502;-74
2022/07/29 08:01:11;;;;;;;9.80;4.90;;;25.60;35.30;;;;;;5035658;28;20512;-74
2022/07/29 08:03:38;;;;;;;6.03;5.33;;;25.70;34.80;;;;;;5035758;28;20447;-73
2022/07/29 08:06:05;;;;;;;5.57;5.07;;;25.90;34.50;;;;;;5036652;28;21052;-76
2022/07/29 08:08:32;;;;;;;5.60;5.10;;;25.80;33.70;;;;;;5036649;28;20430;-77
2022/07/29 08:11:01;;;;;;;5.10;4.63;;;25.60;33.80;;;;;;5035244;28;20563;-75
2022/07/29 08:13:29;;;;;;;5.30;4.60;;;25.80;33.70;;;;;;5035581;28;20459;-74
2022/07/29 08:16:01;;;;;;;6.00;5.00;;;25.40;33.40;;;;;;5035038;28;20461;-75
2022/07/29 08:18:29;;;;;;;6.70;4.47;;;25.20;33.40;;;;;;5035319;28;20539;-76
2022/07/29 08:20:57;;;;;;;7.03;5.03;;;25.20;34.60;;;;;;5035649;28;20460;-74
2022/07/29 08:23:26;;;;;;;7.47;4.73;;;25.20;34.10;;;;;;5035455;28;20437;-76
2022/07/29 08:25:53;;;;;;;5.53;4.20;;;25.20;33.20;;;;;;5036902;28;20492;-76
2022/07/29 08:28:22;;;;;;;5.23;4.70;;;25.10;33.20;;;;;;5036584;28;20532;-72
2022/07/29 08:30:49;;;;;;;4.80;4.33;;;25.00;33.60;;;;;;5036842;28;20826;-74
2022/07/29 08:33:16;;;;;;;5.10;4.70;;;25.20;33.20;;;;;;5037016;28;20873;-74
2022/07/29 08:35:42;;;;;;;6.23;4.37;;;25.30;33.30;;;;;;5036224;28;20456;-72
2022/07/29 08:38:09;;;;;;;4.07;3.70;;;25.70;33.60;;;;;;5038164;28;20428;-73
2022/07/29 08:40:36;;;;;;;5.80;4.17;;;26.00;32.10;;;;;;5040658;28;20427;-75
2022/07/29 08:43:08;;;;;;;6.00;4.23;;;26.10;31.50;;;;;;5057060;28;20470;-75
2022/07/29 08:45:44;;;;;;;6.70;3.93;;;26.40;30.30;;;;;;5057341;28;20434;-73
2022/07/29 08:48:12;;;;;;;6.33;3.70;;;26.40;30.40;;;;;;5057807;28;20423;-71
2022/07/29 08:50:40;;;;;;;4.67;3.80;;;26.70;29.80;;;;;;5057615;28;20484;-72
2022/07/29 08:53:11;;;;;;;5.33;4.30;;;27.00;29.00;;;;;;5057095;28;20454;-74
2022/07/29 08:55:41;;;;;;;4.00;3.60;;;27.20;28.50;;;;;;5051069;28;20477;-74
2022/07/29 08:58:09;;;;;;;4.00;3.70;;;27.50;28.10;;;;;;5041294;28;20961;-74
2022/07/29 09:00:41;;;;;;;3.93;3.47;;;27.60;27.00;;;;;;5036547;28;20460;-73
2022/07/29 09:03:10;;;;;;;5.87;3.90;;;27.40;27.00;;;;;;5039989;28;20437;-74
2022/07/29 09:05:37;;;;;;;4.77;4.03;;;27.10;27.70;;;;;;5045723;28;20503;-74
2022/07/29 09:08:05;;;;;;;4.03;3.73;;;27.10;27.90;;;;;;5038038;28;20493;-74
2022/07/29 09:10:32;;;;;;;5.70;3.67;;;27.10;27.90;;;;;;5037624;28;20540;-69
2022/07/29 09:12:59;;;;;;;4.77;3.63;;;27.20;27.80;;;;;;5034382;28;20877;-75
2022/07/29 09:15:26;;;;;;;13.00;3.90;;;27.40;27.60;;;;;;5034775;28;20489;-73
2022/07/29 09:17:56;;;;;;;6.80;3.23;;;27.40;26.40;;;;;;5034597;28;20432;-73
2022/07/29 09:20:23;;;;;;;4.03;3.70;;;27.20;26.50;;;;;;5035828;28;20500;-74
2022/07/29 09:22:53;;;;;;;5.87;3.53;;;27.10;26.40;;;;;;5034994;28;20452;-73
2022/07/29 09:25:33;;;;;;;10.73;4.10;;;27.10;26.70;;;;;;5034943;28;20571;-70
2022/07/29 09:28:07;;;;;;;12.00;4.03;;;27.00;26.50;;;;;;5035865;28;20434;-72
2022/07/29 09:30:34;;;;;;;4.77;3.50;;;27.10;26.30;;;;;;5034328;28;20447;-71
2022/07/29 09:33:04;;;;;;;4.57;4.03;;;27.30;25.50;;;;;;5033398;28;20442;-71
2022/07/29 09:35:31;;;;;;;6.90;4.27;;;27.40;25.70;;;;;;5033087;28;20494;-74
2022/07/29 09:37:58;;;;;;;6.17;4.20;;;27.20;25.90;;;;;;5034213;28;20949;-72
2022/07/29 09:40:26;;;;;;;5.53;4.17;;;27.00;26.60;;;;;;5035671;28;20480;-73
2022/07/29 09:42:56;;;;;;;5.10;3.97;;;27.00;26.40;;;;;;5034415;28;20577;-73
2022/07/29 09:45:32;;;;;;;7.40;3.63;;;27.10;26.30;;;;;;5034889;28;20457;-73
2022/07/29 09:48:02;;;;;;;4.03;3.40;;;27.20;26.60;;;;;;5033987;28;20976;-74
2022/07/29 09:50:44;;;;;;;7.27;3.63;;;27.20;26.50;;;;;;5034668;28;20472;-73
2022/07/29 09:53:12;;;;;;;4.10;3.70;;;27.60;26.20;;;;;;5034238;28;20480;-73
2022/07/29 09:55:49;;;;;;;3.97;3.57;;;28.00;25.90;;;;;;5035192;28;21031;-73
2022/07/29 09:58:17;;;;;;;5.67;3.80;;;28.20;26.00;;;;;;5038165;28;20471;-74
2022/07/29 10:00:45;;;;;;;5.30;3.73;;;28.10;25.60;;;;;;5048407;28;20470;-72
2022/07/29 10:03:12;;;;;;;4.77;4.20;;;28.20;26.00;;;;;;5045870;28;20467;-72
2022/07/29 10:05:41;;;;;;;6.33;3.53;;;28.30;25.60;;;;;;5034745;28;20455;-73
2022/07/29 10:08:09;;;;;;;5.20;4.10;;;28.40;25.70;;;;;;5036265;28;20447;-74
2022/07/29 10:10:39;;;;;;;7.13;3.57;;;28.70;25.00;;;;;;5036551;28;21105;-73
2022/07/29 10:13:08;;;;;;;9.00;4.03;;;28.70;24.80;;;;;;5037521;28;20523;-73
2022/07/29 10:15:40;;;;;;;6.33;3.70;;;28.70;25.20;;;;;;5036733;28;20485;-72
2022/07/29 10:18:08;;;;;;;5.20;3.60;;;28.70;25.20;;;;;;5037201;28;20445;-71
2022/07/29 10:20:36;;;;;;;8.13;4.07;;;28.50;25.30;;;;;;5036219;28;20474;-72
2022/07/29 10:23:04;;;;;;;3.90;3.60;;;28.40;25.20;;;;;;5036664;28;20447;-72
2022/07/29 10:25:32;;;;;;;8.37;3.70;;;28.60;24.80;;;;;;5038367;28;20546;-73
2022/07/29 10:27:59;;;;;;;4.10;3.80;;;28.70;25.10;;;;;;5038140;28;20454;-73
2022/07/29 10:30:27;;;;;;;5.33;3.60;;;28.80;24.20;;;;;;5037222;28;20768;-72
2022/07/29 10:33:18;;;;;;;4.23;3.30;;;28.60;24.70;;;;;;5022214;28;20463;-73
2022/07/29 10:36:05;;;;;;;4.50;3.60;;;28.80;24.10;;;;;;5037186;28;20952;-73
2022/07/29 10:38:45;;;;;;;3.73;3.43;;;29.00;23.30;;;;;;5037104;28;20520;-73
2022/07/29 10:41:42;;;;;;;3.67;3.37;;;29.00;22.60;;;;;;5036648;28;20471;-73
2022/07/29 10:44:14;;;;;;;6.00;3.70;;;28.70;23.10;;;;;;5037493;28;20491;-73
2022/07/29 10:46:42;;;;;;;8.40;3.33;;;28.80;22.10;;;;;;5038317;28;20443;-73
2022/07/29 10:49:10;;;;;;;6.33;3.30;;;28.70;22.30;;;;;;5036721;28;20428;-73
2022/07/29 10:51:58;;;;;;;7.90;3.87;;;28.30;23.30;;;;;;5036523;28;20434;-72
2022/07/29 10:54:52;;;;;;;6.43;3.60;;;28.10;23.10;;;;;;5037094;28;20478;-73
2022/07/29 10:57:27;;;;;;;3.90;3.50;;;28.10;23.40;;;;;;5003362;28;20544;-73
2022/07/29 11:00:30;;;;;;;3.90;3.60;;;28.30;23.10;;;;;;5029762;28;20530;-74
2022/07/29 11:02:57;;;;;;;5.77;3.30;;;28.50;23.20;;;;;;5036819;28;20445;-73
2022/07/29 11:05:29;;;;;;;5.90;3.23;;;28.80;22.40;;;;;;5037936;28;21039;-74
2022/07/29 11:08:23;;;;;;;5.30;3.63;;;28.80;22.60;;;;;;5037866;28;20449;-73
2022/07/29 11:10:53;;;;;;;5.03;3.53;;;28.80;22.10;;;;;;5037683;28;20442;-72
2022/07/29 11:13:50;;;;;;;12.20;3.93;;;28.80;22.20;;;;;;5039382;28;20484;-73
2022/07/29 11:16:17;;;;;;;3.90;3.20;;;28.90;22.20;;;;;;5040077;28;20540;-73
2022/07/29 11:19:17;;;;;;;10.23;4.30;;;28.80;22.10;;;;;;5040654;28;20467;-74
2022/07/29 11:21:47;;;;;;;4.43;3.10;;;28.80;22.10;;;;;;5042550;28;20531;-73
2022/07/29 11:24:14;;;;;;;6.00;3.60;;;29.30;21.90;;;;;;5048982;28;20477;-73
2022/07/29 11:26:43;;;;;;;5.53;3.53;;;29.50;21.50;;;;;;5047926;28;20460;-73
2022/07/29 11:29:20;;;;;;;5.30;3.90;;;29.60;21.50;;;;;;5045949;28;20526;-74
2022/07/29 11:31:51;;;;;;;3.73;3.23;;;29.70;21.00;;;;;;5045385;28;20586;-74
2022/07/29 11:34:23;;;;;;;3.10;2.90;;;30.00;20.60;;;;;;5044175;28;20493;-74
2022/07/29 11:37:16;;;;;;;6.80;3.20;;;30.10;20.30;;;;;;5046965;28;20518;-71
2022/07/29 11:39:46;;;;;;;6.27;3.43;;;30.10;20.30;;;;;;5049243;28;20572;-71
2022/07/29 11:42:46;;;;;;;4.33;3.37;;;30.20;19.90;;;;;;5049590;28;20465;-75
2022/07/29 11:45:18;;;;;;;4.53;3.43;;;30.70;19.40;;;;;;5050209;28;20501;-73
2022/07/29 11:47:52;;;;;;;6.10;3.70;;;30.60;18.80;;;;;;5046698;28;20484;-74
2022/07/29 11:50:32;;;;;;;4.07;3.10;;;30.50;19.30;;;;;;5038495;28;20427;-74
2022/07/29 11:53:00;;;;;;;3.20;2.80;;;30.60;19.80;;;;;;5037695;28;20962;-72
2022/07/29 11:55:27;;;;;;;4.63;3.13;;;30.90;19.00;;;;;;5036732;28;20841;-73
2022/07/29 11:57:58;;;;;;;3.73;3.47;;;31.10;19.10;;;;;;5035252;28;20556;-75
2022/07/29 12:00:28;;;;;;;3.60;3.30;;;31.00;19.10;;;;;;5025341;28;20538;-74
2022/07/29 12:02:56;;;;;;;3.57;3.27;;;30.80;19.50;;;;;;5035979;28;20525;-74
2022/07/29 12:05:35;;;;;;;3.50;3.20;;;30.90;19.00;;;;;;5035987;28;21135;-72
2022/07/29 12:08:10;;;;;;;4.37;3.23;;;30.80;18.90;;;;;;5038690;28;20452;-74
2022/07/29 12:10:37;;;;;;;6.07;3.10;;;30.70;18.90;;;;;;5037415;28;20485;-75
2022/07/29 12:13:06;;;;;;;6.03;2.80;;;30.80;18.90;;;;;;5036026;28;20487;-74
2022/07/29 12:15:34;;;;;;;6.80;3.20;;;30.80;18.90;;;;;;5035342;28;20508;-74
2022/07/29 12:18:10;;;;;;;3.00;2.83;;;30.80;18.90;;;;;;5037524;28;20796;-73
2022/07/29 12:20:37;;;;;;;5.00;2.93;;;30.30;19.30;;;;;;5037483;28;20512;-72
2022/07/29 12:23:11;;;;;;;4.10;2.83;;;30.00;19.30;;;;;;5039343;28;20510;-71
2022/07/29 12:25:39;;;;;;;3.27;2.97;;;29.70;19.80;;;;;;5036379;28;20494;-72
2022/07/29 12:28:09;;;;;;;9.10;2.90;;;29.60;20.20;;;;;;5035426;28;20480;-73
2022/07/29 12:30:39;;;;;;;3.00;2.67;;;29.70;20.10;;;;;;5033873;28;20514;-73
2022/07/29 12:33:22;;;;;;;6.47;3.57;;;29.80;19.60;;;;;;5034528;28;20438;-72
2022/07/29 12:35:51;;;;;;;3.50;2.60;;;30.10;18.60;;;;;;5034643;28;20469;-71
2022/07/29 12:38:18;;;;;;;6.73;2.70;;;30.10;18.60;;;;;;5034935;28;20784;-71
2022/07/29 12:40:47;;;;;;;5.10;2.53;;;30.40;18.70;;;;;;5034672;28;20472;-72
2022/07/29 12:43:17;;;;;;;2.60;2.40;;;30.70;17.90;;;;;;5032376;28;20436;-74
2022/07/29 12:45:47;;;;;;;2.67;2.23;;;30.90;17.20;;;;;;5034475;28;20455;-73
2022/07/29 12:48:40;;;;;;;12.10;2.57;;;30.60;17.40;;;;;;5034650;28;20439;-74
2022/07/29 12:51:08;;;;;;;8.50;2.93;;;30.80;17.70;;;;;;5010036;28;20428;-74
2022/07/29 12:53:36;;;;;;;4.33;2.43;;;31.10;17.00;;;;;;5036446;28;20465;-72
2022/07/29 12:56:04;;;;;;;3.17;2.43;;;31.10;17.20;;;;;;5033705;28;20546;-75
2022/07/29 12:58:35;;;;;;;5.53;2.40;;;31.10;16.50;;;;;;5031219;28;20463;-73
2022/07/29 13:01:04;;;;;;;3.27;2.70;;;31.10;16.50;;;;;;5039349;28;20511;-74
2022/07/29 13:03:46;;;;;;;7.47;2.57;;;30.90;16.80;;;;;;5032400;28;20947;-74